Time;durP1;ratioP1;P1;durP2;ratioP2;P2;SDS_P1;SDS_P2;PMS_P1;PMS_P2;Temp;Humidity;BMP_temperature;BMP_pressure;BME280_temperature;BME280_humidity;BME280_pressure;Samples;Min_cycle;Max_cycle;Signal;HPM_P1;HPM_P2
2022/03/30 00:00:44;;;;;;;36.45;12.95;;;7.80;97.30;;;;;;5118458;27;20039;-75
2022/03/30 00:03:09;;;;;;;29.17;12.05;;;7.80;97.20;;;;;;5118433;27;20050;-75
2022/03/30 00:05:35;;;;;;;23.30;11.88;;;7.80;97.20;;;;;;5101168;27;20126;-75
2022/03/30 00:08:02;;;;;;;26.70;12.20;;;7.70;97.20;;;;;;5100978;27;20101;-75
2022/03/30 00:10:28;;;;;;;32.80;12.43;;;7.70;97.20;;;;;;5118679;27;20402;-75
2022/03/30 00:12:55;;;;;;;29.80;12.88;;;7.70;97.20;;;;;;5100522;27;20039;-75
2022/03/30 00:15:21;;;;;;;28.08;12.07;;;7.70;97.20;;;;;;5135286;27;20058;-75
2022/03/30 00:17:46;;;;;;;30.95;12.70;;;7.60;97.20;;;;;;5117437;27;20051;-75
2022/03/30 00:20:12;;;;;;;32.78;12.73;;;7.60;97.30;;;;;;5118029;27;20497;-74
2022/03/30 00:22:38;;;;;;;28.90;12.68;;;7.60;97.40;;;;;;5117910;27;20047;-75
2022/03/30 00:25:06;;;;;;;37.78;13.43;;;7.70;97.40;;;;;;5118045;27;20043;-74
2022/03/30 00:27:32;;;;;;;30.48;13.38;;;7.60;97.20;;;;;;5117710;27;20051;-75
2022/03/30 00:29:57;;;;;;;26.08;12.73;;;7.70;97.30;;;;;;5117828;27;20446;-75
2022/03/30 00:32:23;;;;;;;31.13;13.68;;;7.70;97.30;;;;;;5117553;27;20047;-75
2022/03/30 00:34:48;;;;;;;30.52;12.35;;;7.70;97.30;;;;;;5100730;27;20134;-75
2022/03/30 00:37:14;;;;;;;30.88;11.80;;;7.80;97.40;;;;;;5117188;27;20050;-75
2022/03/30 00:39:40;;;;;;;27.38;12.60;;;7.80;97.40;;;;;;5117876;27;20058;-75
2022/03/30 00:42:16;;;;;;;30.50;14.15;;;7.80;97.50;;;;;;5117337;27;20441;-74
2022/03/30 00:44:42;;;;;;;36.33;13.07;;;7.90;97.50;;;;;;5117520;27;20130;-75
2022/03/30 00:47:19;;;;;;;25.33;12.40;;;7.90;97.40;;;;;;5117365;27;20081;-75
2022/03/30 00:49:45;;;;;;;26.40;12.65;;;8.00;97.40;;;;;;5117461;27;20055;-74
2022/03/30 00:52:12;;;;;;;28.63;13.10;;;7.90;97.40;;;;;;5117392;27;20043;-74
2022/03/30 00:54:46;;;;;;;34.72;13.63;;;7.90;97.50;;;;;;5117130;27;20043;-75
2022/03/30 00:57:14;;;;;;;31.48;13.45;;;7.90;97.50;;;;;;5117363;27;20050;-74
2022/03/30 00:59:41;;;;;;;31.40;12.85;;;7.90;97.60;;;;;;5117133;27;20099;-74
2022/03/30 01:02:08;;;;;;;35.63;13.02;;;8.00;97.70;;;;;;5116596;27;20482;-75
2022/03/30 01:04:34;;;;;;;33.47;13.35;;;8.00;97.70;;;;;;5117152;27;20050;-75
2022/03/30 01:07:00;;;;;;;32.55;12.60;;;8.00;97.70;;;;;;5134013;27;20047;-74
2022/03/30 01:09:26;;;;;;;30.60;12.60;;;8.10;97.80;;;;;;5117494;27;20541;-75
2022/03/30 01:11:56;;;;;;;36.20;13.45;;;8.10;97.80;;;;;;5117049;27;20051;-75
2022/03/30 01:14:26;;;;;;;26.70;12.27;;;8.20;97.60;;;;;;5116666;27;20130;-75
2022/03/30 01:16:52;;;;;;;32.50;12.88;;;8.20;97.60;;;;;;5116784;27;20055;-75
2022/03/30 01:19:18;;;;;;;30.10;13.38;;;8.20;97.60;;;;;;5116960;27;20502;-74
2022/03/30 01:21:45;;;;;;;33.28;13.70;;;8.20;97.60;;;;;;5116916;27;20126;-74
2022/03/30 01:24:12;;;;;;;34.60;12.90;;;8.20;97.60;;;;;;5134006;27;20485;-74
2022/03/30 01:26:39;;;;;;;33.03;12.98;;;8.20;97.60;;;;;;5116744;27;20058;-75
2022/03/30 01:32:25;;;;;;;32.42;13.98;;;8.20;97.50;;;;;;5117285;27;20397;-75
2022/03/30 01:34:37;;;;;;;39.33;13.30;;;8.20;97.60;;;;;;5116563;27;20089;-75
2022/03/30 01:37:04;;;;;;;30.60;12.25;;;8.30;97.50;;;;;;5134805;27;20093;-74
2022/03/30 01:39:30;;;;;;;28.25;12.43;;;8.30;97.60;;;;;;5116561;27;20489;-75
2022/03/30 01:41:55;;;;;;;30.20;12.82;;;8.40;97.80;;;;;;5116396;27;20135;-75
2022/03/30 01:44:21;;;;;;;29.55;12.43;;;8.40;97.80;;;;;;5134385;27;20043;-75
2022/03/30 01:46:47;;;;;;;32.90;12.07;;;8.30;97.90;;;;;;5116203;28;20043;-75
2022/03/30 01:49:12;;;;;;;32.13;11.98;;;8.40;98.00;;;;;;5116298;28;20588;-75
2022/03/30 01:51:38;;;;;;;33.05;12.52;;;8.40;98.00;;;;;;5116674;28;20078;-75
2022/03/30 01:54:04;;;;;;;33.17;13.02;;;8.40;98.10;;;;;;5134698;28;20047;-75
2022/03/30 01:56:30;;;;;;;31.45;13.55;;;8.50;98.20;;;;;;5116523;28;20485;-75
2022/03/30 01:58:56;;;;;;;33.75;13.10;;;8.50;98.00;;;;;;5133479;28;20047;-75
2022/03/30 02:01:22;;;;;;;33.65;12.70;;;8.40;98.10;;;;;;5135003;28;20055;-75
2022/03/30 02:03:47;;;;;;;32.38;12.32;;;8.50;98.20;;;;;;5116180;28;20047;-75
2022/03/30 02:06:14;;;;;;;30.70;12.73;;;8.50;98.30;;;;;;5099115;28;20048;-74
2022/03/30 02:08:40;;;;;;;34.35;12.70;;;8.50;98.20;;;;;;5133556;28;20122;-75
2022/03/30 02:11:06;;;;;;;32.65;12.90;;;8.60;98.10;;;;;;5134682;28;20528;-75
2022/03/30 02:13:32;;;;;;;32.15;12.73;;;8.60;98.20;;;;;;5134200;27;20050;-75
2022/03/30 02:15:57;;;;;;;40.05;13.93;;;8.60;98.20;;;;;;5120509;27;20381;-75
2022/03/30 02:18:24;;;;;;;34.90;12.80;;;8.70;98.20;;;;;;5102819;27;20083;-75
2022/03/30 02:20:50;;;;;;;32.42;12.65;;;8.70;98.10;;;;;;5120437;27;20047;-76
2022/03/30 02:23:15;;;;;;;36.20;14.00;;;8.70;98.00;;;;;;5120372;27;20058;-74
2022/03/30 02:25:41;;;;;;;35.08;14.75;;;8.60;97.90;;;;;;5119997;27;20065;-75
2022/03/30 02:28:07;;;;;;;33.72;13.27;;;8.40;97.90;;;;;;5119698;27;20043;-75
2022/03/30 02:30:32;;;;;;;50.17;15.45;;;8.20;98.30;;;;;;5120682;27;20047;-75
2022/03/30 02:32:58;;;;;;;37.05;14.02;;;8.30;98.50;;;;;;5120248;27;20055;-75
2022/03/30 02:35:24;;;;;;;32.88;13.73;;;8.40;98.60;;;;;;5120070;27;20079;-75
2022/03/30 02:37:54;;;;;;;43.28;14.07;;;8.40;98.40;;;;;;5119902;27;20051;-75
2022/03/30 02:40:20;;;;;;;42.13;15.02;;;8.40;98.60;;;;;;5136577;27;20103;-75
2022/03/30 02:42:46;;;;;;;48.67;15.35;;;8.40;98.30;;;;;;5137631;27;20054;-75
2022/03/30 02:45:12;;;;;;;37.72;14.23;;;8.10;98.40;;;;;;5119907;27;20054;-74
2022/03/30 02:50:21;;;;;;;44.83;16.42;;;8.00;98.70;;;;;;5119603;27;20422;-75
2022/03/30 02:52:47;;;;;;;44.50;16.08;;;8.10;98.80;;;;;;5119531;27;20047;-75
2022/03/30 02:55:13;;;;;;;42.45;15.45;;;8.20;99.00;;;;;;5119480;27;20043;-74
2022/03/30 02:57:40;;;;;;;52.25;17.55;;;8.30;98.90;;;;;;5102378;27;20054;-75
2022/03/30 03:00:07;;;;;;;37.00;15.50;;;8.40;98.90;;;;;;5136739;27;20202;-75
2022/03/30 03:02:34;;;;;;;38.72;15.77;;;8.50;98.90;;;;;;5119019;27;20065;-75
2022/03/30 03:05:01;;;;;;;39.63;14.57;;;8.60;99.00;;;;;;5137717;27;20073;-75
2022/03/30 03:07:27;;;;;;;41.42;15.13;;;8.60;99.00;;;;;;5119473;27;20455;-75
2022/03/30 03:09:53;;;;;;;47.97;15.73;;;8.70;99.00;;;;;;5119434;27;20055;-75
2022/03/30 03:12:19;;;;;;;31.88;11.98;;;8.70;98.90;;;;;;5119339;27;20051;-75
2022/03/30 03:14:45;;;;;;;30.35;11.55;;;8.70;99.00;;;;;;5137580;27;20111;-75
2022/03/30 03:17:11;;;;;;;24.63;11.30;;;8.80;98.90;;;;;;5118880;27;20059;-75
2022/03/30 03:19:37;;;;;;;27.48;10.65;;;8.80;99.10;;;;;;5136844;27;20073;-75
2022/03/30 03:22:04;;;;;;;16.73;7.38;;;8.80;99.20;;;;;;5119162;27;20055;-74
2022/03/30 03:24:30;;;;;;;8.45;3.90;;;8.70;99.20;;;;;;5135736;27;20375;-75
2022/03/30 03:26:55;;;;;;;8.23;3.05;;;8.60;99.30;;;;;;5118668;27;20072;-75
2022/03/30 03:29:21;;;;;;;7.00;2.60;;;8.60;99.40;;;;;;5118765;27;20099;-75
2022/03/30 03:31:47;;;;;;;4.00;1.90;;;8.50;99.50;;;;;;5137114;27;20043;-74
2022/03/30 03:34:13;;;;;;;5.05;1.48;;;8.50;99.60;;;;;;5119089;27;20089;-74
2022/03/30 03:36:38;;;;;;;4.03;1.40;;;8.40;99.50;;;;;;5137353;27;20039;-74
2022/03/30 03:39:04;;;;;;;4.53;0.85;;;8.40;99.60;;;;;;5101668;27;20047;-74
2022/03/30 03:41:30;;;;;;;2.58;1.00;;;8.40;99.50;;;;;;5118775;27;20051;-74
2022/03/30 03:43:55;;;;;;;2.13;0.98;;;8.40;99.40;;;;;;5101343;27;20055;-74
2022/03/30 03:46:21;;;;;;;3.65;0.98;;;8.20;99.50;;;;;;5118418;27;20126;-74
2022/03/30 03:48:47;;;;;;;2.80;0.85;;;8.10;99.60;;;;;;5101686;27;20054;-75
2022/03/30 03:51:12;;;;;;;1.30;0.45;;;8.30;99.70;;;;;;5136718;27;20050;-74
2022/03/30 03:53:38;;;;;;;0.90;0.60;;;8.10;99.40;;;;;;5118622;27;20053;-74
2022/03/30 03:56:05;;;;;;;2.55;0.50;;;8.10;99.50;;;;;;5118367;27;20043;-74
2022/03/30 03:58:30;;;;;;;1.35;0.38;;;8.00;99.40;;;;;;5118298;27;20043;-74
2022/03/30 04:00:56;;;;;;;1.63;0.60;;;8.00;99.40;;;;;;5118134;27;20103;-74
2022/03/30 04:03:22;;;;;;;1.75;0.30;;;8.00;99.40;;;;;;5083502;27;20074;-75
2022/03/30 04:05:48;;;;;;;0.93;0.20;;;8.00;99.40;;;;;;5135716;27;20049;-75
2022/03/30 04:08:15;;;;;;;2.67;0.40;;;8.20;99.50;;;;;;5138356;27;20046;-74
2022/03/30 04:10:41;;;;;;;3.10;0.30;;;8.30;99.30;;;;;;5138872;27;20095;-74
2022/03/30 04:13:07;;;;;;;0.52;0.20;;;8.00;99.30;;;;;;5138445;27;20046;-74
2022/03/30 04:15:37;;;;;;;2.05;0.25;;;8.00;99.30;;;;;;5156942;27;20142;-74
2022/03/30 04:18:04;;;;;;;0.55;0.20;;;8.10;99.30;;;;;;5135160;27;20089;-75
2022/03/30 04:20:31;;;;;;;0.40;0.20;;;8.10;99.20;;;;;;5136226;27;20090;-74
2022/03/30 04:22:57;;;;;;;2.08;0.20;;;8.10;99.20;;;;;;5135293;27;20043;-74
2022/03/30 04:25:23;;;;;;;1.00;0.30;;;8.20;99.10;;;;;;5135096;27;20051;-74
2022/03/30 04:27:50;;;;;;;0.63;0.10;;;8.20;99.10;;;;;;5117604;27;20046;-75
2022/03/30 04:30:18;;;;;;;2.58;0.30;;;8.20;98.90;;;;;;5135002;27;20117;-74
2022/03/30 04:32:45;;;;;;;1.08;0.20;;;7.90;99.00;;;;;;5135935;27;20058;-74
2022/03/30 04:35:17;;;;;;;0.50;0.20;;;8.00;99.00;;;;;;5134729;27;20051;-74
2022/03/30 04:37:42;;;;;;;0.93;0.22;;;7.90;99.00;;;;;;5134256;27;20059;-74
2022/03/30 04:40:09;;;;;;;2.05;0.52;;;7.80;99.00;;;;;;5134799;27;20043;-75
2022/03/30 04:42:35;;;;;;;0.57;0.20;;;8.00;99.00;;;;;;5134216;27;20079;-75
2022/03/30 04:45:01;;;;;;;2.90;0.57;;;8.10;98.90;;;;;;5134709;27;20076;-74
2022/03/30 04:47:26;;;;;;;3.67;0.40;;;8.00;98.60;;;;;;5135979;27;20118;-74
2022/03/30 04:49:52;;;;;;;1.27;0.20;;;8.10;98.50;;;;;;5135617;27;20142;-74
2022/03/30 04:52:18;;;;;;;3.17;0.40;;;8.10;98.50;;;;;;5135578;27;20044;-74
2022/03/30 04:54:44;;;;;;;1.35;0.40;;;8.10;98.50;;;;;;5135884;27;20103;-74
2022/03/30 04:57:10;;;;;;;1.20;0.30;;;8.10;98.40;;;;;;5134467;27;20490;-74
2022/03/30 04:59:36;;;;;;;1.58;0.50;;;8.10;98.50;;;;;;5134132;27;20047;-74
2022/03/30 05:02:02;;;;;;;2.38;0.40;;;8.20;98.40;;;;;;5118024;27;20142;-74
2022/03/30 05:04:32;;;;;;;2.55;0.80;;;7.80;98.50;;;;;;5134437;27;20082;-74
2022/03/30 05:06:58;;;;;;;2.13;0.63;;;7.90;98.70;;;;;;5134179;27;20100;-74
2022/03/30 05:09:23;;;;;;;1.48;0.52;;;7.90;98.50;;;;;;5135365;27;20412;-74
2022/03/30 05:11:50;;;;;;;3.42;0.60;;;7.90;98.50;;;;;;5134116;27;20506;-74
2022/03/30 05:14:16;;;;;;;0.80;0.40;;;7.90;98.50;;;;;;5133740;27;20093;-75
2022/03/30 05:16:42;;;;;;;2.05;0.70;;;8.00;98.50;;;;;;5135111;27;20078;-74
2022/03/30 05:19:09;;;;;;;3.22;0.82;;;7.90;98.40;;;;;;5155598;27;20057;-75
2022/03/30 05:21:35;;;;;;;4.93;0.98;;;7.90;98.50;;;;;;5137470;27;20039;-74
2022/03/30 05:24:00;;;;;;;1.98;0.80;;;7.90;98.30;;;;;;5156082;27;20103;-74
2022/03/30 05:26:28;;;;;;;2.00;0.90;;;7.90;98.20;;;;;;5137445;27;20046;-74
2022/03/30 05:28:54;;;;;;;4.05;0.80;;;7.90;98.20;;;;;;5155652;27;20051;-74
2022/03/30 05:31:20;;;;;;;1.17;0.70;;;7.80;98.40;;;;;;5137385;27;20102;-74
2022/03/30 05:33:46;;;;;;;2.97;1.10;;;7.80;98.30;;;;;;5137414;27;20047;-74
2022/03/30 05:36:12;;;;;;;3.50;1.05;;;7.90;98.40;;;;;;5137414;27;20065;-74
2022/03/30 05:38:38;;;;;;;3.53;1.15;;;7.80;98.10;;;;;;5136975;27;20466;-74
2022/03/30 05:41:04;;;;;;;1.23;0.75;;;7.80;98.40;;;;;;5155769;27;20038;-74
2022/03/30 05:43:30;;;;;;;3.47;0.95;;;7.70;98.40;;;;;;5136878;27;20058;-74
2022/03/30 05:45:56;;;;;;;10.18;1.08;;;7.70;98.50;;;;;;5155413;27;20042;-74
2022/03/30 05:48:22;;;;;;;3.80;0.82;;;7.70;98.60;;;;;;5136863;27;20043;-75
2022/03/30 05:50:51;;;;;;;8.45;1.00;;;7.70;98.50;;;;;;5137167;27;20124;-75
2022/03/30 05:53:17;;;;;;;5.63;0.93;;;7.70;98.60;;;;;;5137458;27;20103;-74
2022/03/30 05:55:46;;;;;;;4.75;0.88;;;7.70;98.50;;;;;;5136811;27;20114;-74
2022/03/30 05:58:13;;;;;;;5.85;0.98;;;7.80;98.60;;;;;;5155483;27;20043;-74
2022/03/30 06:00:39;;;;;;;6.90;1.20;;;7.80;98.60;;;;;;5137045;27;20505;-74
2022/03/30 06:03:04;;;;;;;3.63;0.90;;;7.70;98.60;;;;;;5155300;27;20047;-74
2022/03/30 06:05:30;;;;;;;4.00;1.05;;;7.70;98.50;;;;;;5119816;27;20103;-75
2022/03/30 06:07:58;;;;;;;6.47;1.80;;;7.80;98.60;;;;;;5136555;27;20470;-74
2022/03/30 06:10:27;;;;;;;4.55;1.33;;;7.80;98.60;;;;;;5136968;27;20050;-74
2022/03/30 06:12:53;;;;;;;4.63;1.42;;;7.90;98.50;;;;;;5136554;27;20047;-74
2022/03/30 06:15:19;;;;;;;3.00;1.08;;;7.90;98.60;;;;;;5136900;27;20103;-74
2022/03/30 06:17:46;;;;;;;3.70;1.20;;;7.90;98.60;;;;;;5155052;27;20055;-74
2022/03/30 06:20:13;;;;;;;5.68;1.65;;;8.00;98.70;;;;;;5136877;27;20062;-74
2022/03/30 06:22:41;;;;;;;3.40;1.10;;;8.00;98.70;;;;;;5137509;27;20042;-74
2022/03/30 06:25:09;;;;;;;4.43;1.17;;;8.10;98.70;;;;;;5136924;27;20046;-74
2022/03/30 06:27:39;;;;;;;2.38;1.10;;;8.10;98.70;;;;;;5136330;27;20046;-74
2022/03/30 06:30:07;;;;;;;2.60;1.17;;;8.10;98.70;;;;;;5136538;27;20043;-74
2022/03/30 06:32:33;;;;;;;2.30;1.00;;;8.20;98.60;;;;;;5136797;27;20405;-74
2022/03/30 06:34:59;;;;;;;3.70;1.38;;;8.20;98.60;;;;;;5137135;27;20046;-74
2022/03/30 06:37:24;;;;;;;2.88;1.50;;;8.30;98.60;;;;;;5136488;27;20049;-76
2022/03/30 06:39:50;;;;;;;4.95;1.70;;;8.30;98.60;;;;;;5136723;27;20123;-76
2022/03/30 06:42:16;;;;;;;3.55;1.60;;;8.30;98.70;;;;;;5119615;27;20034;-79
2022/03/30 06:44:43;;;;;;;3.08;1.35;;;8.40;98.60;;;;;;5119192;27;20062;-78
2022/03/30 06:47:09;;;;;;;2.97;1.35;;;8.50;98.50;;;;;;5136409;27;20099;-77
2022/03/30 06:49:37;;;;;;;4.78;1.70;;;8.50;98.60;;;;;;5119404;27;20133;-76
2022/03/30 06:52:04;;;;;;;5.35;1.35;;;8.60;98.50;;;;;;5136626;27;20123;-77
2022/03/30 06:54:29;;;;;;;5.10;1.88;;;8.30;98.40;;;;;;5136392;27;20046;-77
2022/03/30 06:56:55;;;;;;;3.03;1.48;;;8.30;98.50;;;;;;5136585;27;20087;-77
2022/03/30 06:59:21;;;;;;;3.85;1.35;;;8.30;98.40;;;;;;5137308;27;20046;-77
2022/03/30 07:01:47;;;;;;;7.57;1.70;;;8.30;98.30;;;;;;5140409;27;20473;-77
2022/03/30 07:04:13;;;;;;;13.68;2.00;;;8.30;98.30;;;;;;5140380;27;20493;-77
2022/03/30 07:10:14;;;;;;;6.55;2.00;;;8.10;98.30;;;;;;5122625;27;20043;-77
2022/03/30 07:12:08;;;;;;;7.00;1.67;;;8.40;98.40;;;;;;5140380;27;20054;-77
2022/03/30 07:14:34;;;;;;;4.78;1.40;;;8.40;98.00;;;;;;5139567;27;20043;-77
2022/03/30 07:17:00;;;;;;;4.93;1.25;;;8.40;98.00;;;;;;5139799;27;20381;-79
2022/03/30 07:19:26;;;;;;;7.78;1.38;;;8.50;98.00;;;;;;5122791;27;20061;-78
2022/03/30 07:21:51;;;;;;;4.20;1.20;;;8.50;97.90;;;;;;5139869;27;20053;-77
2022/03/30 07:24:17;;;;;;;2.83;1.20;;;8.60;97.90;;;;;;5122758;27;20053;-77
2022/03/30 07:26:43;;;;;;;7.80;1.52;;;8.60;98.00;;;;;;5122528;27;20050;-78
2022/03/30 07:29:08;;;;;;;3.42;1.35;;;8.70;98.00;;;;;;5139751;27;20088;-78
2022/03/30 07:31:34;;;;;;;6.80;1.70;;;8.70;97.60;;;;;;5139675;27;20047;-77
2022/03/30 07:33:59;;;;;;;6.93;1.30;;;8.70;97.90;;;;;;5139540;27;20133;-77
2022/03/30 07:36:25;;;;;;;6.60;1.55;;;8.80;97.90;;;;;;5122519;27;20082;-78
2022/03/30 07:38:51;;;;;;;3.78;1.33;;;8.80;97.60;;;;;;5139206;27;20043;-77
2022/03/30 07:41:16;;;;;;;8.05;2.13;;;8.60;97.80;;;;;;5139411;27;20463;-78
2022/03/30 07:43:42;;;;;;;11.88;2.88;;;8.60;97.80;;;;;;5121862;27;20453;-76
2022/03/30 07:46:11;;;;;;;6.05;2.08;;;8.70;98.00;;;;;;5139551;27;20042;-76
2022/03/30 07:48:37;;;;;;;7.80;2.60;;;8.80;97.80;;;;;;5139377;27;20047;-76
2022/03/30 07:51:03;;;;;;;6.97;2.10;;;8.90;97.80;;;;;;5139426;27;20107;-74
2022/03/30 07:53:29;;;;;;;6.53;2.05;;;8.90;97.30;;;;;;5139835;27;20478;-73
2022/03/30 07:55:55;;;;;;;9.20;2.13;;;8.80;97.60;;;;;;5139146;27;20042;-73
2022/03/30 07:58:21;;;;;;;6.70;2.22;;;9.00;97.50;;;;;;5138859;27;20042;-74
2022/03/30 08:00:48;;;;;;;5.30;2.08;;;9.10;97.70;;;;;;5141358;27;20043;-77
2022/03/30 08:03:13;;;;;;;6.65;2.17;;;9.20;97.20;;;;;;5162753;27;20090;-77
2022/03/30 08:05:39;;;;;;;7.68;2.50;;;9.20;97.20;;;;;;5160091;27;20490;-78
2022/03/30 08:08:08;;;;;;;4.30;1.65;;;9.20;97.20;;;;;;5138645;27;20087;-79
2022/03/30 08:10:35;;;;;;;11.77;1.83;;;9.10;96.70;;;;;;5138460;27;20046;-79
2022/03/30 08:13:02;;;;;;;8.95;2.00;;;9.00;97.00;;;;;;5156733;27;20043;-78
2022/03/30 08:15:28;;;;;;;5.15;1.67;;;9.00;96.70;;;;;;5138790;27;20047;-78
2022/03/30 08:17:54;;;;;;;7.32;1.83;;;9.20;96.70;;;;;;5138376;27;20065;-77
2022/03/30 08:23:25;;;;;;;6.38;1.40;;;9.30;96.40;;;;;;5076550;28;20109;-78
2022/03/30 08:25:51;;;;;;;6.72;1.35;;;8.90;96.90;;;;;;5075973;28;20041;-77
2022/03/30 08:28:17;;;;;;;5.82;1.25;;;8.50;97.30;;;;;;5104793;27;20054;-77
2022/03/30 08:30:42;;;;;;;3.45;0.85;;;8.40;97.60;;;;;;5138551;27;20046;-77
2022/03/30 08:33:08;;;;;;;6.60;1.00;;;8.30;97.70;;;;;;5121344;27;20129;-77
2022/03/30 08:35:34;;;;;;;3.55;0.77;;;8.30;97.60;;;;;;5138425;27;20130;-81
2022/03/30 08:38:00;;;;;;;6.53;0.88;;;8.30;97.90;;;;;;5157905;27;20065;-78
2022/03/30 08:40:26;;;;;;;5.95;0.90;;;8.50;97.70;;;;;;5138350;27;20386;-77
2022/03/30 08:42:55;;;;;;;4.85;0.98;;;8.50;97.70;;;;;;5137579;27;20447;-78
2022/03/30 08:45:21;;;;;;;5.32;1.13;;;8.70;97.50;;;;;;5138185;27;20089;-79
2022/03/30 08:47:47;;;;;;;5.88;0.88;;;8.70;97.40;;;;;;5138066;27;20046;-77
2022/03/30 08:50:13;;;;;;;3.65;0.60;;;8.50;97.10;;;;;;5138326;27;20042;-77
2022/03/30 08:52:39;;;;;;;7.40;0.90;;;8.50;97.40;;;;;;5138089;27;20164;-77
2022/03/30 08:55:05;;;;;;;2.55;0.50;;;8.70;97.20;;;;;;5138059;27;20129;-78
2022/03/30 08:57:31;;;;;;;7.85;1.30;;;8.80;97.00;;;;;;5137671;27;20071;-77
2022/03/30 08:59:59;;;;;;;10.75;1.20;;;9.00;97.10;;;;;;5138635;27;20038;-77
2022/03/30 09:02:46;;;;;;;6.32;1.50;;;9.00;96.80;;;;;;5120674;27;20045;-77
2022/03/30 09:05:16;;;;;;;5.50;1.50;;;8.80;96.70;;;;;;5138171;27;20366;-77
2022/03/30 09:07:44;;;;;;;4.07;1.08;;;8.90;97.20;;;;;;5137282;27;20043;-77
2022/03/30 09:10:15;;;;;;;5.63;1.40;;;8.90;96.90;;;;;;5137777;27;20051;-77
2022/03/30 09:12:43;;;;;;;3.28;0.93;;;8.90;97.00;;;;;;5137634;27;20504;-73
2022/03/30 09:15:09;;;;;;;6.93;0.90;;;9.10;96.90;;;;;;5137578;27;20424;-75
2022/03/30 09:17:39;;;;;;;5.18;0.88;;;8.90;96.90;;;;;;5120037;27;20099;-77
2022/03/30 09:20:16;;;;;;;5.18;0.77;;;9.10;96.80;;;;;;5137561;27;20100;-78
2022/03/30 09:22:49;;;;;;;3.45;0.70;;;9.00;96.40;;;;;;5137582;27;20488;-78
2022/03/30 09:25:16;;;;;;;3.45;0.68;;;9.30;96.50;;;;;;5121031;27;20375;-77
2022/03/30 09:27:44;;;;;;;6.25;0.77;;;9.50;96.30;;;;;;5137268;27;20047;-77
2022/03/30 09:30:14;;;;;;;6.80;0.95;;;9.80;96.10;;;;;;5137378;27;20064;-77
2022/03/30 09:32:42;;;;;;;4.63;0.55;;;9.90;95.50;;;;;;5120390;27;20058;-77
2022/03/30 09:35:31;;;;;;;3.40;0.43;;;10.00;94.90;;;;;;5137307;27;20474;-77
2022/03/30 09:38:18;;;;;;;4.28;0.70;;;9.80;94.20;;;;;;5137472;27;20089;-78
2022/03/30 09:40:45;;;;;;;4.15;0.80;;;9.70;94.60;;;;;;5137308;27;20042;-78
2022/03/30 09:43:19;;;;;;;4.93;0.73;;;9.60;95.40;;;;;;5136734;27;20388;-78
2022/03/30 09:45:47;;;;;;;4.03;0.80;;;9.40;95.20;;;;;;5120027;27;20054;-78
2022/03/30 09:48:24;;;;;;;5.13;0.90;;;9.50;95.10;;;;;;5119806;27;20409;-78
2022/03/30 09:50:53;;;;;;;5.63;0.88;;;9.40;95.10;;;;;;5137149;27;20043;-77
2022/03/30 09:53:21;;;;;;;4.13;0.73;;;9.40;95.30;;;;;;5137186;27;20133;-77
2022/03/30 09:56:01;;;;;;;7.15;0.80;;;9.50;95.20;;;;;;5136748;27;20371;-78
2022/03/30 09:58:31;;;;;;;6.18;0.90;;;9.50;95.30;;;;;;5137071;27;20051;-78
2022/03/30 10:01:10;;;;;;;22.50;1.83;;;9.50;95.20;;;;;;5137087;27;20089;-79
2022/03/30 10:03:44;;;;;;;7.57;0.90;;;9.60;95.80;;;;;;5138414;27;20046;-74
2022/03/30 10:06:18;;;;;;;9.93;1.17;;;9.90;95.70;;;;;;5137663;27;20145;-78
2022/03/30 10:08:46;;;;;;;6.50;0.82;;;10.30;95.00;;;;;;5137135;27;20054;-78
2022/03/30 10:11:15;;;;;;;5.68;0.80;;;10.60;95.00;;;;;;5136955;27;20043;-78
2022/03/30 10:13:42;;;;;;;4.32;1.10;;;10.60;94.20;;;;;;5119372;27;20047;-77
2022/03/30 10:16:08;;;;;;;6.35;0.80;;;10.70;94.50;;;;;;5137152;27;20397;-78
2022/03/30 10:18:37;;;;;;;8.32;1.20;;;10.70;94.00;;;;;;5136175;27;20051;-75
2022/03/30 10:21:19;;;;;;;4.78;1.05;;;10.60;94.20;;;;;;5137083;27;20109;-79
2022/03/30 10:23:51;;;;;;;7.35;1.13;;;10.30;94.40;;;;;;5136736;27;20481;-79
2022/03/30 10:26:47;;;;;;;3.45;1.00;;;9.80;94.00;;;;;;5136629;27;20103;-76
2022/03/30 10:29:16;;;;;;;4.67;1.07;;;9.80;94.60;;;;;;5129999;27;20408;-72
2022/03/30 10:31:42;;;;;;;5.38;1.00;;;10.00;94.50;;;;;;5136630;27;20389;-73
2022/03/30 10:34:27;;;;;;;2.45;0.70;;;10.30;94.40;;;;;;5137347;27;20058;-72
2022/03/30 10:37:09;;;;;;;12.55;1.00;;;10.40;93.60;;;;;;5141007;27;20138;-86
2022/03/30 10:39:52;;;;;;;7.10;0.85;;;10.30;94.40;;;;;;5140662;27;20477;-86
2022/03/30 10:42:18;;;;;;;5.93;1.30;;;10.40;93.70;;;;;;5141720;27;20042;-85
2022/03/30 10:44:47;;;;;;;7.20;1.20;;;10.30;93.60;;;;;;5139687;27;20588;-74
2022/03/30 10:47:16;;;;;;;3.58;0.95;;;10.30;93.60;;;;;;5140358;27;20070;-74
2022/03/30 10:49:51;;;;;;;3.33;0.82;;;10.50;93.70;;;;;;5140553;27;20102;-73
2022/03/30 10:52:44;;;;;;;3.85;1.10;;;10.40;93.40;;;;;;5140674;27;20137;-76
2022/03/30 10:55:12;;;;;;;4.90;1.05;;;10.30;93.70;;;;;;5140186;27;20054;-73
2022/03/30 10:57:53;;;;;;;6.28;0.73;;;10.00;93.80;;;;;;5141090;27;20062;-75
2022/03/30 11:00:39;;;;;;;6.40;0.80;;;9.80;93.90;;;;;;5140313;27;20087;-77
2022/03/30 11:03:25;;;;;;;3.27;0.80;;;9.60;93.50;;;;;;5140306;27;20049;-76
2022/03/30 11:06:09;;;;;;;3.67;0.70;;;9.60;93.90;;;;;;5140212;27;20050;-76
2022/03/30 11:08:35;;;;;;;5.00;0.70;;;9.50;93.70;;;;;;5140599;27;20101;-76
2022/03/30 11:11:02;;;;;;;5.63;0.95;;;9.60;94.00;;;;;;5140480;27;20501;-77
2022/03/30 11:13:28;;;;;;;2.00;0.60;;;9.70;94.00;;;;;;5139572;27;20042;-76
2022/03/30 11:15:59;;;;;;;1.70;0.90;;;9.70;93.40;;;;;;5140060;27;20501;-77
2022/03/30 11:18:27;;;;;;;6.80;1.00;;;9.50;93.40;;;;;;5139663;27;20093;-82
2022/03/30 11:21:18;;;;;;;7.20;0.70;;;9.50;93.70;;;;;;5140270;27;20055;-84
2022/03/30 11:24:18;;;;;;;7.13;0.80;;;9.70;93.30;;;;;;5140199;27;20455;-83
2022/03/30 11:26:50;;;;;;;8.65;0.90;;;9.70;92.90;;;;;;5139529;27;20049;-84
2022/03/30 11:29:47;;;;;;;1.92;0.60;;;10.00;93.70;;;;;;5139755;27;20084;-83
2022/03/30 11:32:18;;;;;;;4.88;0.85;;;9.80;92.30;;;;;;5139703;27;20043;-84
2022/03/30 11:34:54;;;;;;;4.25;0.70;;;9.80;92.80;;;;;;5139289;27;20051;-81
2022/03/30 11:37:20;;;;;;;3.88;0.60;;;9.90;93.00;;;;;;5140225;27;20062;-82
2022/03/30 11:39:49;;;;;;;4.78;0.77;;;9.70;92.80;;;;;;5122494;27;20061;-83
2022/03/30 11:42:19;;;;;;;4.13;0.40;;;9.50;92.70;;;;;;5122315;27;20486;-82
2022/03/30 11:47:34;;;;;;;5.20;0.93;;;9.40;92.40;;;;;;5139507;27;20050;-76
2022/03/30 11:50:00;;;;;;;2.58;0.60;;;9.50;92.40;;;;;;5144496;27;20050;-77
2022/03/30 11:52:26;;;;;;;4.40;0.63;;;9.90;91.90;;;;;;5139120;27;20393;-77
2022/03/30 11:54:53;;;;;;;4.40;0.70;;;10.40;91.80;;;;;;5139173;27;20042;-76
2022/03/30 11:57:20;;;;;;;1.88;0.50;;;10.70;91.30;;;;;;5121831;27;20082;-76
2022/03/30 12:00:00;;;;;;;3.72;0.50;;;11.20;91.30;;;;;;5121860;27;20043;-76
2022/03/30 12:02:27;;;;;;;2.38;0.50;;;11.60;90.90;;;;;;5139083;27;20054;-76
2022/03/30 12:04:54;;;;;;;4.13;1.00;;;11.80;90.30;;;;;;5139092;27;20046;-81
2022/03/30 12:07:21;;;;;;;4.15;0.40;;;12.00;90.10;;;;;;5138847;27;20087;-78
2022/03/30 12:09:54;;;;;;;4.13;0.55;;;12.30;90.20;;;;;;5138692;27;20050;-76
2022/03/30 12:12:35;;;;;;;3.80;0.30;;;12.60;88.90;;;;;;5138933;27;20500;-87
2022/03/30 12:15:16;;;;;;;2.22;0.40;;;12.20;87.60;;;;;;5138654;27;20086;-86
2022/03/30 12:17:48;;;;;;;8.63;0.70;;;11.90;87.50;;;;;;5138773;27;20141;-86
2022/03/30 12:20:22;;;;;;;4.30;0.73;;;11.50;88.70;;;;;;5138912;27;20054;-86
2022/03/30 12:22:58;;;;;;;2.17;0.35;;;11.40;88.50;;;;;;5138533;27;20537;-85
2022/03/30 12:25:26;;;;;;;3.30;0.35;;;11.20;88.50;;;;;;5121846;27;20046;-86
2022/03/30 12:27:51;;;;;;;3.58;0.40;;;11.40;88.20;;;;;;5138432;27;20039;-78
2022/03/30 12:30:17;;;;;;;5.68;0.40;;;11.10;88.80;;;;;;5138510;27;20054;-79
2022/03/30 12:32:44;;;;;;;1.83;0.52;;;11.70;87.80;;;;;;5139010;27;20454;-76
2022/03/30 12:35:18;;;;;;;3.45;0.50;;;12.10;86.80;;;;;;5138253;27;20133;-76
2022/03/30 12:37:46;;;;;;;3.22;0.50;;;12.80;86.40;;;;;;5138812;27;20061;-77
2022/03/30 12:40:20;;;;;;;3.65;0.70;;;13.20;86.20;;;;;;5138410;27;20489;-77
2022/03/30 12:42:48;;;;;;;4.18;0.82;;;13.30;86.20;;;;;;5138686;27;20044;-76
2022/03/30 12:45:16;;;;;;;5.50;0.75;;;13.20;86.60;;;;;;5137791;27;20038;-77
2022/03/30 12:47:53;;;;;;;5.15;0.55;;;12.80;86.70;;;;;;5138032;27;20533;-75
2022/03/30 12:50:24;;;;;;;4.90;0.65;;;12.40;87.00;;;;;;5138389;27;20118;-76
2022/03/30 12:52:52;;;;;;;3.72;0.50;;;12.30;88.80;;;;;;5138111;27;20057;-75
2022/03/30 12:55:29;;;;;;;5.22;0.68;;;12.30;87.60;;;;;;5137846;27;20054;-75
2022/03/30 12:57:58;;;;;;;3.38;0.50;;;12.40;87.20;;;;;;5137346;27;20447;-75
2022/03/30 13:00:46;;;;;;;4.70;0.98;;;12.60;87.20;;;;;;5138141;27;20047;-73
2022/03/30 13:03:18;;;;;;;8.48;0.95;;;12.50;86.30;;;;;;5141346;27;20054;-76
2022/03/30 13:06:02;;;;;;;6.43;0.60;;;12.30;86.70;;;;;;5137826;27;20053;-76
2022/03/30 13:08:27;;;;;;;5.05;0.80;;;11.80;86.60;;;;;;5137331;27;20051;-76
2022/03/30 13:11:02;;;;;;;5.47;0.75;;;11.90;86.90;;;;;;5137781;27;20054;-76